createdAt,value
2022-12-20T00:00:57.327Z,26.86
2022-12-20T00:03:24.320Z,26.94
2022-12-20T00:05:51.239Z,26.95
2022-12-20T00:08:18.120Z,26.97
2022-12-20T00:10:46.972Z,26.90
2022-12-20T00:13:14.174Z,26.86
2022-12-20T00:15:41.099Z,26.89
2022-12-20T00:18:08.056Z,26.92
2022-12-20T00:20:35.450Z,27.07
2022-12-20T00:23:02.631Z,27.18
2022-12-20T00:25:29.814Z,27.10
2022-12-20T00:27:58.099Z,27.22
2022-12-20T00:30:25.016Z,27.07
2022-12-20T00:32:51.906Z,26.95
2022-12-20T00:35:19.058Z,26.87
2022-12-20T00:37:45.956Z,26.77
2022-12-20T00:40:13.419Z,26.93
2022-12-20T00:42:40.385Z,26.90
2022-12-20T00:45:09.749Z,26.72
2022-12-20T00:47:36.697Z,27.02
2022-12-20T00:50:03.869Z,27.00
2022-12-20T00:52:31.229Z,27.08
2022-12-20T00:54:58.073Z,26.99
2022-12-20T00:57:25.101Z,27.12
2022-12-20T00:59:51.979Z,27.18
2022-12-20T01:02:20.483Z,27.16
2022-12-20T01:04:49.179Z,27.10
2022-12-20T01:07:16.070Z,27.12
2022-12-20T01:09:42.919Z,27.07
2022-12-20T01:12:09.793Z,27.22
2022-12-20T01:14:36.748Z,27.06
2022-12-20T01:17:03.708Z,27.20
2022-12-20T01:19:32.009Z,27.28
2022-12-20T01:21:58.880Z,27.14
2022-12-20T01:24:26.224Z,27.26
2022-12-20T01:26:53.163Z,27.37
2022-12-20T01:29:20.002Z,27.11
2022-12-20T01:31:47.577Z,27.31
2022-12-20T01:34:15.483Z,27.27
2022-12-20T01:36:43.907Z,27.21
2022-12-20T01:39:13.811Z,27.20
2022-12-20T01:41:42.779Z,27.11
2022-12-20T01:44:42.908Z,27.35
2022-12-20T01:47:12.106Z,27.17
2022-12-20T01:49:43.121Z,27.13
2022-12-20T01:52:15.613Z,27.47
2022-12-20T01:54:48.733Z,27.29
2022-12-20T01:57:21.044Z,27.44
2022-12-20T01:59:50.632Z,27.44
2022-12-20T02:02:18.282Z,27.40
2022-12-20T02:04:45.345Z,27.39
2022-12-20T02:07:18.819Z,27.48
2022-12-20T02:09:46.788Z,27.47
2022-12-20T02:12:16.223Z,27.40
2022-12-20T02:14:59.231Z,27.36
2022-12-20T02:17:36.169Z,27.36
2022-12-20T02:20:32.818Z,27.34
2022-12-20T02:23:26.124Z,27.54
2022-12-20T02:26:12.805Z,27.58
2022-12-20T02:28:56.525Z,27.40
2022-12-20T02:31:28.572Z,27.50
2022-12-20T02:33:59.019Z,27.47
2022-12-20T02:36:26.594Z,27.62
2022-12-20T02:38:54.851Z,27.46
2022-12-20T02:41:26.843Z,27.63
2022-12-20T02:44:15.785Z,27.56
2022-12-20T02:46:45.169Z,27.52
2022-12-20T02:49:17.798Z,27.65
2022-12-20T02:51:49.128Z,27.75
2022-12-20T02:54:17.961Z,27.48
2022-12-20T02:56:52.515Z,27.27
2022-12-20T02:59:23.561Z,27.52
2022-12-20T03:01:54.279Z,27.56
2022-12-20T03:04:26.880Z,27.45
2022-12-20T03:07:00.432Z,27.76
2022-12-20T03:09:28.213Z,27.42
2022-12-20T03:11:55.310Z,27.62
2022-12-20T03:14:22.819Z,27.70
2022-12-20T03:16:52.745Z,27.89
2022-12-20T03:19:19.929Z,27.51
2022-12-20T03:21:46.972Z,27.70
2022-12-20T03:24:14.210Z,27.44
2022-12-20T03:26:42.001Z,27.70
2022-12-20T03:29:09.712Z,27.65
2022-12-20T03:31:37.111Z,27.75
2022-12-20T03:34:06.400Z,27.74
2022-12-20T03:36:34.828Z,27.45
2022-12-20T03:39:04.295Z,27.59
2022-12-20T03:41:35.184Z,27.61
2022-12-20T03:44:02.544Z,27.76
2022-12-20T03:46:29.595Z,27.73
2022-12-20T03:48:57.333Z,27.58
2022-12-20T03:51:25.676Z,27.81
2022-12-20T03:53:52.766Z,27.60
2022-12-20T03:56:22.546Z,27.77
2022-12-20T03:58:49.534Z,27.82
2022-12-20T04:01:18.650Z,27.74
2022-12-20T04:03:47.229Z,27.70
2022-12-20T04:06:14.707Z,27.67
2022-12-20T04:08:43.030Z,27.72
2022-12-20T04:11:17.361Z,27.61
2022-12-20T04:13:55.481Z,27.70
2022-12-20T04:16:24.504Z,27.79
2022-12-20T04:18:52.029Z,27.78
2022-12-20T04:21:22.571Z,27.62
2022-12-20T04:23:51.331Z,27.83
2022-12-20T04:26:18.911Z,27.76
2022-12-20T04:28:46.533Z,27.79
2022-12-20T04:31:17.284Z,27.77
2022-12-20T04:33:48.968Z,27.82
2022-12-20T04:36:16.388Z,27.66
2022-12-20T04:38:43.781Z,27.54
2022-12-20T04:41:22.356Z,27.68
2022-12-20T04:43:56.214Z,27.74
2022-12-20T04:46:26.876Z,27.76
2022-12-20T04:48:58.422Z,27.92
2022-12-20T04:51:26.377Z,27.78
2022-12-20T04:53:53.773Z,27.92
2022-12-20T04:56:29.222Z,27.92
2022-12-20T04:59:03.415Z,27.71
2022-12-20T05:01:31.041Z,28.04
2022-12-20T05:03:58.188Z,27.63
2022-12-20T05:06:28.256Z,27.97
2022-12-20T05:08:55.831Z,27.93
2022-12-20T05:11:22.840Z,27.91
2022-12-20T05:13:52.349Z,27.78
2022-12-20T05:16:21.015Z,28.00
2022-12-20T05:18:49.512Z,27.87
2022-12-20T05:21:35.895Z,27.68
2022-12-20T05:24:23.095Z,28.12
2022-12-20T05:26:59.712Z,28.08
2022-12-20T05:29:28.121Z,28.11
2022-12-20T05:31:55.744Z,27.86
2022-12-20T05:34:22.947Z,27.95
2022-12-20T05:36:53.106Z,28.04
2022-12-20T05:39:22.071Z,28.03
2022-12-20T05:41:51.050Z,28.01
2022-12-20T05:44:18.817Z,28.27
2022-12-20T05:46:50.432Z,28.15
2022-12-20T05:49:22.805Z,28.02
2022-12-20T05:51:50.109Z,28.00
2022-12-20T05:54:25.643Z,27.84
2022-12-20T05:57:25.050Z,27.81
2022-12-20T05:59:52.027Z,28.11
2022-12-20T06:02:24.961Z,27.84
2022-12-20T06:04:59.978Z,27.73
2022-12-20T06:07:29.099Z,27.53
2022-12-20T06:09:59.004Z,27.36
2022-12-20T06:12:37.405Z,27.20
2022-12-20T06:15:05.122Z,27.11
2022-12-20T06:17:33.527Z,27.12
2022-12-20T06:20:00.703Z,27.09
2022-12-20T06:22:27.647Z,26.96
2022-12-20T06:24:56.811Z,26.82
2022-12-20T06:27:27.651Z,26.79
2022-12-20T06:30:15.191Z,26.79
2022-12-20T06:33:03.849Z,26.68
2022-12-20T06:35:31.592Z,26.72
2022-12-20T06:37:59.568Z,26.62
2022-12-20T06:40:28.002Z,26.60
2022-12-20T06:42:58.582Z,26.65
2022-12-20T06:45:25.600Z,26.69
2022-12-20T06:47:53.919Z,26.83
2022-12-20T06:50:23.987Z,26.90
2022-12-20T06:52:50.932Z,26.77
2022-12-20T06:55:17.947Z,26.73
2022-12-20T06:57:46.062Z,26.90
2022-12-20T07:00:14.268Z,26.62
2022-12-20T07:02:41.368Z,26.92
2022-12-20T07:05:08.627Z,26.71
2022-12-20T07:07:44.369Z,26.60
2022-12-20T07:10:12.067Z,26.81
2022-12-20T07:12:42.488Z,26.65
2022-12-20T07:15:14.279Z,26.82
2022-12-20T07:17:41.114Z,26.57
2022-12-20T07:20:13.237Z,26.61
2022-12-20T07:22:42.605Z,26.56
2022-12-20T07:25:11.067Z,26.50
2022-12-20T07:27:38.014Z,26.41
2022-12-20T07:30:05.974Z,26.45
2022-12-20T07:32:33.163Z,26.86
2022-12-20T07:35:00.101Z,26.61
2022-12-20T07:37:28.866Z,26.79
2022-12-20T07:39:57.163Z,26.87
2022-12-20T07:42:27.728Z,26.94
2022-12-20T07:45:00.959Z,26.86
2022-12-20T07:47:29.172Z,26.79
2022-12-20T07:49:56.099Z,26.41
2022-12-20T07:52:26.751Z,26.77
2022-12-20T07:54:56.964Z,26.97
2022-12-20T07:57:29.961Z,26.97
2022-12-20T07:59:59.473Z,26.57
2022-12-20T08:02:31.683Z,26.76
2022-12-20T08:04:59.337Z,26.90
2022-12-20T08:07:28.930Z,26.83
2022-12-20T08:09:56.112Z,26.71
2022-12-20T08:12:23.902Z,26.52
2022-12-20T08:14:56.395Z,26.62
2022-12-20T08:17:23.437Z,26.95
2022-12-20T08:19:53.033Z,26.87
2022-12-20T08:22:19.934Z,26.89
2022-12-20T08:24:46.832Z,27.02
2022-12-20T08:27:13.748Z,26.64
2022-12-20T08:29:40.783Z,26.73
2022-12-20T08:32:09.269Z,26.86
2022-12-20T08:34:36.236Z,27.18
2022-12-20T08:37:05.359Z,26.62
2022-12-20T08:39:36.043Z,26.71
2022-12-20T08:42:04.986Z,26.70
2022-12-20T08:44:31.834Z,26.98
2022-12-20T08:46:58.978Z,26.60
2022-12-20T08:49:27.363Z,26.98
2022-12-20T08:51:54.269Z,26.89
2022-12-20T08:54:21.380Z,26.92
2022-12-20T08:56:48.715Z,26.83
2022-12-20T08:59:15.652Z,26.66
2022-12-20T09:01:42.641Z,27.03
2022-12-20T09:04:11.046Z,26.68
2022-12-20T09:06:39.509Z,27.03
2022-12-20T09:09:07.155Z,27.21
2022-12-20T09:11:34.285Z,26.45
2022-12-20T09:14:01.247Z,26.87
2022-12-20T09:16:31.223Z,27.05
2022-12-20T09:19:04.992Z,27.03
2022-12-20T09:21:33.023Z,26.82
2022-12-20T09:24:01.643Z,27.14
2022-12-20T09:26:28.562Z,26.74
2022-12-20T09:28:55.548Z,26.91
2022-12-20T09:31:24.830Z,27.35
2022-12-20T09:33:54.049Z,27.20
2022-12-20T09:36:22.948Z,27.08
2022-12-20T09:38:50.228Z,27.24
2022-12-20T09:41:26.276Z,27.07
2022-12-20T09:43:53.539Z,27.10
2022-12-20T09:46:20.602Z,27.04
2022-12-20T09:48:48.100Z,27.31
2022-12-20T09:51:31.038Z,26.96
2022-12-20T09:54:08.367Z,27.36
2022-12-20T09:56:43.117Z,27.29
2022-12-20T09:59:12.811Z,27.29
2022-12-20T10:01:44.430Z,27.24
2022-12-20T10:04:19.297Z,27.01
2022-12-20T10:06:55.676Z,27.02
2022-12-20T10:09:40.957Z,27.27
2022-12-20T10:12:24.878Z,26.99
2022-12-20T10:15:04.843Z,26.94
2022-12-20T10:17:41.252Z,27.18
2022-12-20T10:20:24.397Z,26.90
2022-12-20T10:22:57.120Z,27.24
2022-12-20T10:25:30.327Z,27.23
2022-12-20T10:28:02.871Z,27.30
2022-12-20T10:30:35.055Z,26.90
2022-12-20T10:33:02.849Z,27.07
2022-12-20T10:35:31.614Z,27.12
2022-12-20T10:38:09.336Z,27.21
2022-12-20T10:41:18.647Z,27.21
2022-12-20T10:43:27.819Z,27.40
2022-12-20T10:45:57.976Z,27.25
2022-12-20T10:48:31.901Z,27.14
2022-12-20T10:51:04.359Z,27.11
2022-12-20T10:53:33.993Z,26.95
2022-12-20T10:56:18.146Z,27.06
2022-12-20T10:58:53.442Z,26.75
2022-12-20T11:01:31.370Z,26.75
2022-12-20T11:04:00.992Z,26.92
2022-12-20T11:06:40.310Z,26.89
2022-12-20T11:09:24.673Z,27.04
2022-12-20T11:12:00.175Z,26.98
2022-12-20T11:14:36.536Z,27.09
2022-12-20T11:17:17.456Z,26.72
2022-12-20T11:20:15.635Z,26.92
2022-12-20T11:22:51.315Z,26.96
2022-12-20T11:25:30.504Z,26.81
2022-12-20T11:28:22.227Z,27.29
2022-12-20T11:31:01.873Z,26.88
2022-12-20T11:33:57.250Z,26.86
2022-12-20T11:36:34.894Z,26.97
2022-12-20T11:39:11.056Z,26.80
2022-12-20T11:41:48.992Z,27.15
2022-12-20T11:44:27.219Z,27.23
2022-12-20T11:47:25.112Z,27.17
2022-12-20T11:50:11.738Z,27.00
2022-12-20T11:52:43.634Z,27.14
2022-12-20T11:55:21.374Z,27.03
2022-12-20T12:00:50.929Z,27.22
2022-12-20T12:03:28.027Z,26.95
2022-12-20T12:05:59.480Z,27.36
2022-12-20T12:08:30.058Z,27.22
2022-12-20T12:11:00.287Z,27.37
2022-12-20T12:13:31.454Z,26.99
2022-12-20T12:16:06.431Z,27.31
2022-12-20T12:18:36.688Z,27.47
2022-12-20T12:21:10.142Z,27.16
2022-12-20T12:23:47.388Z,27.23
2022-12-20T12:26:20.425Z,27.10
2022-12-20T12:28:53.365Z,27.33
2022-12-20T12:31:27.055Z,27.05
2022-12-20T12:34:18.013Z,27.10
2022-12-20T12:37:17.655Z,27.38
2022-12-20T12:40:07.064Z,27.45
2022-12-20T12:43:16.579Z,27.85
2022-12-20T12:45:48.071Z,28.10
2022-12-20T12:48:19.490Z,27.92
2022-12-20T12:50:50.030Z,28.12
2022-12-20T12:53:20.643Z,28.15
2022-12-20T12:55:49.162Z,28.22
2022-12-20T12:58:32.191Z,27.95
2022-12-20T13:01:00.343Z,28.04
2022-12-20T13:03:42.890Z,28.07
2022-12-20T13:06:46.947Z,28.14
2022-12-20T13:09:22.526Z,28.11
2022-12-20T13:11:55.529Z,28.04
2022-12-20T13:14:49.911Z,28.07
2022-12-20T13:17:48.026Z,28.17
2022-12-20T13:20:20.190Z,28.10
2022-12-20T13:23:20.274Z,28.41
2022-12-20T13:25:52.080Z,28.37
2022-12-20T13:28:44.351Z,28.20
2022-12-20T13:31:31.770Z,28.32
2022-12-20T13:34:01.890Z,28.21
2022-12-20T13:36:37.853Z,28.48
2022-12-20T13:39:33.377Z,28.01
2022-12-20T13:42:25.485Z,28.19
2022-12-20T13:44:54.829Z,28.59
2022-12-20T13:47:38.824Z,28.29
2022-12-20T13:50:31.915Z,28.14
2022-12-20T13:52:59.567Z,28.39
2022-12-20T13:55:33.210Z,28.27
2022-12-20T13:58:07.294Z,28.43
2022-12-20T14:00:34.512Z,28.27
2022-12-20T14:03:02.373Z,28.45
2022-12-20T14:05:34.681Z,28.11
2022-12-20T14:08:05.382Z,28.10
2022-12-20T14:10:36.314Z,28.17
2022-12-20T14:13:18.942Z,27.97
2022-12-20T14:15:45.886Z,27.89
2022-12-20T14:18:17.950Z,27.94
2022-12-20T14:20:47.521Z,28.06
2022-12-20T14:23:17.573Z,27.99
2022-12-20T14:25:48.690Z,28.30
2022-12-20T14:28:30.561Z,28.11
2022-12-20T14:30:59.483Z,28.15
2022-12-20T14:33:30.368Z,27.88
2022-12-20T14:35:57.581Z,28.07
2022-12-20T14:38:30.724Z,27.97
2022-12-20T14:40:57.834Z,27.66
2022-12-20T14:43:29.119Z,28.11
2022-12-20T14:46:17.284Z,27.86
2022-12-20T14:48:44.657Z,28.15
2022-12-20T14:51:13.331Z,27.76
2022-12-20T14:53:40.785Z,28.05
2022-12-20T14:56:14.910Z,27.94
2022-12-20T14:58:43.311Z,28.20
2022-12-20T15:01:21.312Z,27.92
2022-12-20T15:03:52.923Z,27.95
2022-12-20T15:06:34.763Z,27.95
2022-12-20T15:09:02.456Z,28.34
2022-12-20T15:11:29.845Z,27.84
2022-12-20T15:13:59.238Z,27.95
2022-12-20T15:16:28.101Z,28.20
2022-12-20T15:18:57.204Z,27.74
2022-12-20T15:21:29.285Z,27.73
2022-12-20T15:23:58.295Z,28.14
2022-12-20T15:26:26.995Z,27.76
2022-12-20T15:28:54.752Z,28.47
2022-12-20T15:31:30.815Z,28.15
2022-12-20T15:34:02.340Z,28.15
2022-12-20T15:36:30.358Z,28.47
2022-12-20T15:39:14.916Z,28.10
2022-12-20T15:41:45.166Z,27.91
2022-12-20T15:44:16.110Z,28.13
2022-12-20T15:46:44.878Z,27.80
2022-12-20T15:49:15.035Z,28.21
2022-12-20T15:51:44.372Z,28.32
2022-12-20T15:54:20.072Z,28.20
2022-12-20T15:56:47.057Z,27.83
2022-12-20T15:59:57.031Z,28.20
2022-12-20T16:02:02.562Z,28.18
2022-12-20T16:04:29.776Z,28.34
2022-12-20T16:06:56.960Z,28.15
2022-12-20T16:09:26.012Z,28.21
2022-12-20T16:11:53.404Z,28.30
2022-12-20T16:14:21.805Z,28.08
2022-12-20T16:16:50.213Z,28.21
2022-12-20T16:19:19.363Z,28.41
2022-12-20T16:21:48.476Z,28.10
2022-12-20T16:24:17.110Z,28.17
2022-12-20T16:26:44.268Z,28.18
2022-12-20T16:29:11.416Z,28.17
2022-12-20T16:31:39.887Z,27.94
2022-12-20T16:34:11.168Z,28.12
2022-12-20T16:36:39.573Z,28.05
2022-12-20T16:39:06.467Z,27.87
2022-12-20T16:41:34.034Z,28.05
2022-12-20T16:44:03.010Z,27.64
2022-12-20T16:46:31.667Z,27.83
2022-12-20T16:49:00.868Z,27.66
2022-12-20T16:51:30.522Z,27.62
2022-12-20T16:54:18.540Z,27.88
2022-12-20T16:56:52.160Z,27.96
2022-12-20T16:59:22.081Z,28.01
2022-12-20T17:01:51.641Z,27.77
2022-12-20T17:04:19.955Z,28.06
2022-12-20T17:06:47.026Z,27.70
2022-12-20T17:09:16.421Z,28.14
2022-12-20T17:11:43.443Z,27.86
2022-12-20T17:14:13.064Z,28.27
2022-12-20T17:16:40.605Z,28.27
2022-12-20T17:19:07.697Z,27.80
2022-12-20T17:24:23.608Z,27.84
2022-12-20T17:26:50.975Z,28.19
2022-12-20T17:29:18.131Z,27.88
2022-12-20T17:31:46.594Z,28.31
2022-12-20T17:34:20.082Z,28.21
2022-12-20T17:36:48.049Z,28.39
2022-12-20T17:39:15.469Z,28.67
2022-12-20T17:41:44.731Z,28.09
2022-12-20T17:44:18.152Z,28.30
2022-12-20T17:46:45.297Z,28.08
2022-12-20T17:49:12.263Z,28.21
2022-12-20T17:51:39.471Z,28.37
2022-12-20T17:54:06.545Z,28.02
2022-12-20T17:56:36.029Z,28.45
2022-12-20T17:59:04.714Z,28.39
2022-12-20T18:01:33.133Z,28.31
2022-12-20T18:04:05.664Z,28.34
2022-12-20T18:06:34.317Z,28.46
2022-12-20T18:09:01.231Z,28.60
2022-12-20T18:11:29.067Z,28.74
2022-12-20T18:13:57.925Z,28.78
2022-12-20T18:16:28.323Z,28.50
2022-12-20T18:18:56.351Z,28.81
2022-12-20T18:21:25.623Z,28.79
2022-12-20T18:23:53.541Z,28.65
2022-12-20T18:26:23.093Z,28.57
2022-12-20T18:28:51.379Z,28.78
2022-12-20T18:31:20.767Z,28.76
2022-12-20T18:33:52.522Z,28.99
2022-12-20T18:36:26.267Z,28.68
2022-12-20T18:38:53.997Z,28.79
2022-12-20T18:41:23.921Z,28.86
2022-12-20T18:43:51.097Z,29.08
2022-12-20T18:46:19.923Z,28.97
2022-12-20T18:48:47.571Z,28.96
2022-12-20T18:51:17.874Z,29.12
2022-12-20T18:53:47.412Z,29.08
2022-12-20T18:56:17.369Z,29.19
2022-12-20T18:58:45.792Z,28.96
2022-12-20T19:01:15.460Z,29.20
2022-12-20T19:03:42.810Z,29.29
2022-12-20T19:06:10.659Z,29.17
2022-12-20T19:08:39.449Z,29.39
2022-12-20T19:11:09.501Z,29.25
2022-12-20T19:13:36.757Z,29.03
2022-12-20T19:16:05.697Z,29.41
2022-12-20T19:18:33.297Z,29.48
2022-12-20T19:21:05.745Z,29.44
2022-12-20T19:23:33.345Z,29.41
2022-12-20T19:26:05.601Z,29.30
2022-12-20T19:28:33.254Z,29.31
2022-12-20T19:31:05.832Z,29.70
2022-12-20T19:33:32.990Z,29.40
2022-12-20T19:35:59.906Z,29.58
2022-12-20T19:38:27.085Z,29.45
2022-12-20T19:40:54.162Z,29.37
2022-12-20T19:43:22.521Z,29.44
2022-12-20T19:45:49.419Z,29.33
2022-12-20T19:48:16.320Z,29.64
2022-12-20T19:50:43.182Z,29.42
2022-12-20T19:53:10.714Z,29.51
2022-12-20T19:55:37.610Z,29.50
2022-12-20T19:58:04.541Z,29.34
2022-12-20T20:00:33.258Z,29.62
2022-12-20T20:03:00.341Z,30.04
2022-12-20T20:05:27.678Z,29.69
2022-12-20T20:07:54.558Z,29.49
2022-12-20T20:10:21.463Z,29.80
2022-12-20T20:12:48.362Z,29.54
2022-12-20T20:15:15.334Z,29.85
2022-12-20T20:17:44.800Z,29.67
2022-12-20T20:20:12.004Z,29.75
2022-12-20T20:22:39.047Z,29.72
2022-12-20T20:25:06.623Z,29.53
2022-12-20T20:27:33.679Z,29.55
2022-12-20T20:30:00.653Z,29.59
2022-12-20T20:32:27.623Z,29.62
2022-12-20T20:34:55.857Z,29.25
2022-12-20T20:37:22.716Z,29.36
2022-12-20T20:39:49.616Z,29.37
2022-12-20T20:42:23.063Z,29.35
2022-12-20T20:44:50.510Z,29.43
2022-12-20T20:47:17.440Z,29.50
2022-12-20T20:49:44.524Z,29.25
2022-12-20T20:52:12.835Z,29.59
2022-12-20T20:54:39.719Z,29.39
2022-12-20T20:57:06.596Z,29.47
2022-12-20T20:59:33.579Z,29.47
2022-12-20T21:02:00.591Z,29.49
2022-12-20T21:04:27.808Z,29.55
2022-12-20T21:06:54.720Z,29.62
2022-12-20T21:09:23.040Z,29.71
2022-12-20T21:11:50.095Z,29.38
2022-12-20T21:14:25.691Z,29.60
2022-12-20T21:17:04.147Z,29.82
2022-12-20T21:19:30.968Z,29.65
2022-12-20T21:21:57.901Z,29.87
2022-12-20T21:24:26.188Z,29.51
2022-12-20T21:26:55.229Z,29.74
2022-12-20T21:29:22.162Z,29.58
2022-12-20T21:31:49.288Z,29.73
2022-12-20T21:34:16.194Z,29.43
2022-12-20T21:36:43.119Z,29.73
2022-12-20T21:39:12.675Z,29.71
2022-12-20T21:41:41.137Z,29.61
2022-12-20T21:44:08.073Z,29.66
2022-12-20T21:46:35.083Z,29.89
2022-12-20T21:49:04.247Z,29.83
2022-12-20T21:51:31.401Z,29.82
2022-12-20T21:53:59.895Z,29.96
2022-12-20T21:56:28.459Z,29.90
2022-12-20T21:58:57.548Z,29.66
2022-12-20T22:01:26.933Z,29.55
2022-12-20T22:03:55.674Z,29.74
2022-12-20T22:06:22.592Z,29.71
2022-12-20T22:08:49.906Z,29.79
2022-12-20T22:11:18.432Z,29.37
2022-12-20T22:13:46.180Z,29.93
2022-12-20T22:16:16.904Z,29.80
2022-12-20T22:18:45.090Z,29.94
2022-12-20T22:21:14.847Z,29.60
2022-12-20T22:23:42.590Z,29.90
2022-12-20T22:26:11.516Z,29.82
2022-12-20T22:28:38.951Z,29.96
2022-12-20T22:31:07.580Z,29.88
2022-12-20T22:33:36.384Z,29.85
2022-12-20T22:36:03.715Z,29.91
2022-12-20T22:38:30.808Z,30.00
2022-12-20T22:41:07.187Z,29.97
2022-12-20T22:43:34.183Z,30.06
2022-12-20T22:48:47.416Z,29.85
2022-12-20T22:51:16.589Z,29.98
2022-12-20T22:53:44.344Z,29.88
2022-12-20T22:56:11.617Z,29.72
2022-12-20T22:58:39.481Z,29.94
2022-12-20T23:01:08.430Z,29.87
2022-12-20T23:03:37.112Z,30.11
2022-12-20T23:06:07.486Z,30.12
2022-12-20T23:08:36.006Z,30.29
2022-12-20T23:11:22.371Z,29.94
2022-12-20T23:14:07.580Z,30.03
2022-12-20T23:16:36.638Z,30.23
2022-12-20T23:19:03.575Z,30.17
2022-12-20T23:21:50.270Z,30.16
2022-12-20T23:24:17.107Z,30.27
2022-12-20T23:26:44.201Z,30.20
2022-12-20T23:29:11.778Z,30.23
2022-12-20T23:31:38.598Z,30.07
2022-12-20T23:34:06.403Z,30.55
2022-12-20T23:36:34.686Z,30.09
2022-12-20T23:39:01.835Z,30.28
2022-12-20T23:41:29.251Z,30.24
2022-12-20T23:43:56.155Z,30.41
2022-12-20T23:46:23.068Z,30.20
2022-12-20T23:48:50.978Z,30.19
2022-12-20T23:51:18.592Z,30.20
2022-12-20T23:53:46.737Z,30.29
2022-12-20T23:56:15.448Z,30.21
2022-12-20T23:58:42.629Z,30.30
